sensor_id;sensor_type;location;lat;lon;timestamp;P1;durP1;ratioP1;P2;durP2;ratioP2
39218;SDS011;24934;52.752;6.964;2023-05-10T00:02:15;50.03;;;35.97;;
39218;SDS011;24934;52.752;6.964;2023-05-10T00:04:41;48.63;;;33.78;;
39218;SDS011;24934;52.752;6.964;2023-05-10T00:07:15;45.72;;;34.20;;
39218;SDS011;24934;52.752;6.964;2023-05-10T00:09:43;40.72;;;32.22;;
39218;SDS011;24934;52.752;6.964;2023-05-10T00:12:09;37.78;;;31.75;;
39218;SDS011;24934;52.752;6.964;2023-05-10T00:14:34;36.47;;;29.88;;
39218;SDS011;24934;52.752;6.964;2023-05-10T00:17:00;30.50;;;27.40;;
39218;SDS011;24934;52.752;6.964;2023-05-10T00:19:26;36.35;;;29.38;;
39218;SDS011;24934;52.752;6.964;2023-05-10T00:21:51;35.90;;;32.08;;
39218;SDS011;24934;52.752;6.964;2023-05-10T00:24:17;37.33;;;31.70;;
39218;SDS011;24934;52.752;6.964;2023-05-10T00:26:43;41.40;;;33.78;;
39218;SDS011;24934;52.752;6.964;2023-05-10T00:29:08;41.00;;;34.40;;
39218;SDS011;24934;52.752;6.964;2023-05-10T00:31:34;39.17;;;33.25;;
39218;SDS011;24934;52.752;6.964;2023-05-10T00:34:00;38.67;;;32.40;;
39218;SDS011;24934;52.752;6.964;2023-05-10T00:36:25;35.92;;;32.03;;
39218;SDS011;24934;52.752;6.964;2023-05-10T00:38:51;37.30;;;31.80;;
39218;SDS011;24934;52.752;6.964;2023-05-10T00:41:17;38.33;;;33.10;;
39218;SDS011;24934;52.752;6.964;2023-05-10T00:43:44;37.47;;;32.75;;
39218;SDS011;24934;52.752;6.964;2023-05-10T00:46:10;46.63;;;33.17;;
39218;SDS011;24934;52.752;6.964;2023-05-10T00:48:36;39.13;;;33.63;;
39218;SDS011;24934;52.752;6.964;2023-05-10T00:51:02;43.40;;;33.58;;
39218;SDS011;24934;52.752;6.964;2023-05-10T00:53:28;42.47;;;33.53;;
39218;SDS011;24934;52.752;6.964;2023-05-10T00:55:57;40.13;;;34.45;;
39218;SDS011;24934;52.752;6.964;2023-05-10T00:58:24;43.05;;;35.33;;
39218;SDS011;24934;52.752;6.964;2023-05-10T01:00:53;43.63;;;35.38;;
39218;SDS011;24934;52.752;6.964;2023-05-10T01:03:21;40.55;;;35.60;;
39218;SDS011;24934;52.752;6.964;2023-05-10T01:05:47;41.45;;;35.47;;
39218;SDS011;24934;52.752;6.964;2023-05-10T01:08:12;43.15;;;35.53;;
39218;SDS011;24934;52.752;6.964;2023-05-10T01:10:38;45.65;;;36.45;;
39218;SDS011;24934;52.752;6.964;2023-05-10T01:13:04;45.50;;;36.33;;
39218;SDS011;24934;52.752;6.964;2023-05-10T01:15:30;43.95;;;35.97;;
39218;SDS011;24934;52.752;6.964;2023-05-10T01:17:56;44.90;;;36.58;;
39218;SDS011;24934;52.752;6.964;2023-05-10T01:20:22;49.00;;;37.42;;
39218;SDS011;24934;52.752;6.964;2023-05-10T01:23:10;49.88;;;37.75;;
39218;SDS011;24934;52.752;6.964;2023-05-10T01:29:36;50.25;;;38.28;;
39218;SDS011;24934;52.752;6.964;2023-05-10T01:34:42;53.80;;;39.35;;
39218;SDS011;24934;52.752;6.964;2023-05-10T01:37:25;52.20;;;39.67;;
39218;SDS011;24934;52.752;6.964;2023-05-10T01:40:57;51.20;;;39.55;;
39218;SDS011;24934;52.752;6.964;2023-05-10T01:43:03;54.97;;;40.00;;
39218;SDS011;24934;52.752;6.964;2023-05-10T01:45:40;54.30;;;39.47;;
39218;SDS011;24934;52.752;6.964;2023-05-10T01:48:15;52.25;;;39.05;;
39218;SDS011;24934;52.752;6.964;2023-05-10T01:50:44;52.30;;;39.13;;
39218;SDS011;24934;52.752;6.964;2023-05-10T01:53:11;54.05;;;39.95;;
39218;SDS011;24934;52.752;6.964;2023-05-10T01:55:45;55.33;;;39.63;;
39218;SDS011;24934;52.752;6.964;2023-05-10T01:58:13;53.47;;;39.13;;
39218;SDS011;24934;52.752;6.964;2023-05-10T02:00:44;52.63;;;37.85;;
39218;SDS011;24934;52.752;6.964;2023-05-10T02:03:15;49.45;;;36.47;;
39218;SDS011;24934;52.752;6.964;2023-05-10T02:05:43;49.00;;;36.72;;
39218;SDS011;24934;52.752;6.964;2023-05-10T02:08:10;50.58;;;36.72;;
39218;SDS011;24934;52.752;6.964;2023-05-10T02:10:41;47.97;;;36.63;;
39218;SDS011;24934;52.752;6.964;2023-05-10T02:13:09;54.17;;;37.50;;
39218;SDS011;24934;52.752;6.964;2023-05-10T02:15:40;51.10;;;36.58;;
39218;SDS011;24934;52.752;6.964;2023-05-10T02:18:13;51.80;;;36.42;;
39218;SDS011;24934;52.752;6.964;2023-05-10T02:20:41;51.88;;;35.78;;
39218;SDS011;24934;52.752;6.964;2023-05-10T02:23:08;51.88;;;37.55;;
39218;SDS011;24934;52.752;6.964;2023-05-10T02:25:36;53.40;;;38.03;;
39218;SDS011;24934;52.752;6.964;2023-05-10T02:28:04;53.72;;;37.03;;
39218;SDS011;24934;52.752;6.964;2023-05-10T02:30:32;53.78;;;36.88;;
39218;SDS011;24934;52.752;6.964;2023-05-10T02:32:59;49.47;;;36.13;;
39218;SDS011;24934;52.752;6.964;2023-05-10T02:35:27;49.92;;;34.67;;
39218;SDS011;24934;52.752;6.964;2023-05-10T02:37:53;48.47;;;36.08;;
39218;SDS011;24934;52.752;6.964;2023-05-10T02:40:20;50.40;;;35.78;;
39218;SDS011;24934;52.752;6.964;2023-05-10T02:42:50;45.00;;;34.45;;
39218;SDS011;24934;52.752;6.964;2023-05-10T02:45:19;50.22;;;35.80;;
39218;SDS011;24934;52.752;6.964;2023-05-10T02:47:48;49.72;;;33.95;;
39218;SDS011;24934;52.752;6.964;2023-05-10T02:50:14;47.85;;;35.17;;
39218;SDS011;24934;52.752;6.964;2023-05-10T02:52:44;47.65;;;34.95;;
39218;SDS011;24934;52.752;6.964;2023-05-10T02:55:16;49.08;;;33.97;;
39218;SDS011;24934;52.752;6.964;2023-05-10T02:57:45;48.92;;;35.22;;
39218;SDS011;24934;52.752;6.964;2023-05-10T03:00:15;44.92;;;32.95;;
39218;SDS011;24934;52.752;6.964;2023-05-10T03:02:43;49.60;;;34.58;;
39218;SDS011;24934;52.752;6.964;2023-05-10T03:05:08;47.22;;;34.20;;
39218;SDS011;24934;52.752;6.964;2023-05-10T03:07:34;47.25;;;33.08;;
39218;SDS011;24934;52.752;6.964;2023-05-10T03:10:00;49.40;;;33.45;;
39218;SDS011;24934;52.752;6.964;2023-05-10T03:17:52;47.08;;;32.03;;
39218;SDS011;24934;52.752;6.964;2023-05-10T03:20:48;45.95;;;33.03;;
39218;SDS011;24934;52.752;6.964;2023-05-10T03:26:02;44.17;;;31.67;;
39218;SDS011;24934;52.752;6.964;2023-05-10T03:28:29;43.72;;;31.90;;
39218;SDS011;24934;52.752;6.964;2023-05-10T03:30:57;42.30;;;31.80;;
39218;SDS011;24934;52.752;6.964;2023-05-10T03:33:23;42.08;;;31.63;;
39218;SDS011;24934;52.752;6.964;2023-05-10T03:35:49;45.35;;;31.92;;
39218;SDS011;24934;52.752;6.964;2023-05-10T03:38:15;43.20;;;31.92;;
39218;SDS011;24934;52.752;6.964;2023-05-10T03:40:41;44.60;;;32.80;;
39218;SDS011;24934;52.752;6.964;2023-05-10T03:43:06;43.40;;;32.90;;
39218;SDS011;24934;52.752;6.964;2023-05-10T03:45:32;47.72;;;32.67;;
39218;SDS011;24934;52.752;6.964;2023-05-10T03:47:58;46.75;;;33.22;;
39218;SDS011;24934;52.752;6.964;2023-05-10T03:50:23;42.38;;;33.00;;
39218;SDS011;24934;52.752;6.964;2023-05-10T03:52:49;43.45;;;33.10;;
39218;SDS011;24934;52.752;6.964;2023-05-10T03:55:15;43.30;;;33.30;;
39218;SDS011;24934;52.752;6.964;2023-05-10T03:57:41;41.03;;;32.35;;
39218;SDS011;24934;52.752;6.964;2023-05-10T04:00:09;43.50;;;32.15;;
39218;SDS011;24934;52.752;6.964;2023-05-10T04:02:36;43.17;;;31.35;;
39218;SDS011;24934;52.752;6.964;2023-05-10T04:05:03;42.45;;;31.17;;
39218;SDS011;24934;52.752;6.964;2023-05-10T04:07:29;40.10;;;31.55;;
39218;SDS011;24934;52.752;6.964;2023-05-10T04:09:55;39.33;;;31.48;;
39218;SDS011;24934;52.752;6.964;2023-05-10T04:12:23;43.72;;;32.42;;
39218;SDS011;24934;52.752;6.964;2023-05-10T04:14:49;43.45;;;32.35;;
39218;SDS011;24934;52.752;6.964;2023-05-10T04:17:16;41.60;;;32.72;;
39218;SDS011;24934;52.752;6.964;2023-05-10T04:19:41;38.13;;;31.17;;
39218;SDS011;24934;52.752;6.964;2023-05-10T04:22:07;42.63;;;31.85;;
39218;SDS011;24934;52.752;6.964;2023-05-10T04:24:32;36.38;;;31.42;;
39218;SDS011;24934;52.752;6.964;2023-05-10T04:26:58;37.30;;;32.55;;
39218;SDS011;24934;52.752;6.964;2023-05-10T04:29:24;38.83;;;32.35;;
39218;SDS011;24934;52.752;6.964;2023-05-10T04:31:52;37.20;;;30.80;;
39218;SDS011;24934;52.752;6.964;2023-05-10T04:34:20;36.83;;;31.17;;
39218;SDS011;24934;52.752;6.964;2023-05-10T04:36:47;43.15;;;32.17;;
39218;SDS011;24934;52.752;6.964;2023-05-10T04:39:12;44.92;;;32.33;;
39218;SDS011;24934;52.752;6.964;2023-05-10T04:41:38;40.47;;;31.83;;
39218;SDS011;24934;52.752;6.964;2023-05-10T04:44:04;39.38;;;31.63;;
39218;SDS011;24934;52.752;6.964;2023-05-10T04:46:30;39.58;;;32.88;;
39218;SDS011;24934;52.752;6.964;2023-05-10T04:48:56;40.03;;;32.30;;
39218;SDS011;24934;52.752;6.964;2023-05-10T04:51:21;42.25;;;32.38;;
39218;SDS011;24934;52.752;6.964;2023-05-10T04:53:47;39.70;;;32.63;;
39218;SDS011;24934;52.752;6.964;2023-05-10T04:56:12;43.70;;;33.65;;
39218;SDS011;24934;52.752;6.964;2023-05-10T04:58:38;44.40;;;32.92;;
39218;SDS011;24934;52.752;6.964;2023-05-10T05:01:04;42.50;;;32.38;;
39218;SDS011;24934;52.752;6.964;2023-05-10T05:03:36;45.05;;;33.75;;
39218;SDS011;24934;52.752;6.964;2023-05-10T05:06:02;38.38;;;32.85;;
39218;SDS011;24934;52.752;6.964;2023-05-10T05:08:28;43.50;;;33.20;;
39218;SDS011;24934;52.752;6.964;2023-05-10T05:10:53;45.92;;;34.75;;
39218;SDS011;24934;52.752;6.964;2023-05-10T05:13:19;45.05;;;33.42;;
39218;SDS011;24934;52.752;6.964;2023-05-10T05:15:45;51.20;;;33.88;;
39218;SDS011;24934;52.752;6.964;2023-05-10T05:18:11;47.33;;;33.90;;
39218;SDS011;24934;52.752;6.964;2023-05-10T05:20:36;42.10;;;32.47;;
39218;SDS011;24934;52.752;6.964;2023-05-10T05:23:05;45.72;;;33.33;;
39218;SDS011;24934;52.752;6.964;2023-05-10T05:25:31;42.65;;;31.67;;
39218;SDS011;24934;52.752;6.964;2023-05-10T05:27:57;48.08;;;33.13;;
39218;SDS011;24934;52.752;6.964;2023-05-10T05:30:22;41.47;;;31.63;;
39218;SDS011;24934;52.752;6.964;2023-05-10T05:32:48;39.15;;;31.60;;
39218;SDS011;24934;52.752;6.964;2023-05-10T05:35:14;39.92;;;31.60;;
39218;SDS011;24934;52.752;6.964;2023-05-10T05:37:39;43.17;;;31.30;;
39218;SDS011;24934;52.752;6.964;2023-05-10T05:40:05;40.90;;;30.50;;
39218;SDS011;24934;52.752;6.964;2023-05-10T05:42:31;34.97;;;29.33;;
39218;SDS011;24934;52.752;6.964;2023-05-10T05:44:57;36.40;;;29.02;;
39218;SDS011;24934;52.752;6.964;2023-05-10T05:47:23;36.85;;;30.25;;
39218;SDS011;24934;52.752;6.964;2023-05-10T05:49:48;42.63;;;29.70;;
39218;SDS011;24934;52.752;6.964;2023-05-10T05:52:14;36.65;;;29.23;;
39218;SDS011;24934;52.752;6.964;2023-05-10T05:54:39;42.38;;;29.42;;
39218;SDS011;24934;52.752;6.964;2023-05-10T05:57:05;44.60;;;30.20;;
39218;SDS011;24934;52.752;6.964;2023-05-10T05:59:31;37.88;;;29.58;;
39218;SDS011;24934;52.752;6.964;2023-05-10T06:01:57;37.35;;;29.55;;
39218;SDS011;24934;52.752;6.964;2023-05-10T06:04:22;39.50;;;29.73;;
39218;SDS011;24934;52.752;6.964;2023-05-10T06:06:48;39.95;;;29.83;;
39218;SDS011;24934;52.752;6.964;2023-05-10T06:09:14;42.15;;;30.50;;
39218;SDS011;24934;52.752;6.964;2023-05-10T06:11:39;39.53;;;31.10;;
39218;SDS011;24934;52.752;6.964;2023-05-10T06:14:05;41.25;;;30.27;;
39218;SDS011;24934;52.752;6.964;2023-05-10T06:16:32;39.70;;;30.70;;
39218;SDS011;24934;52.752;6.964;2023-05-10T06:19:01;38.55;;;30.52;;
39218;SDS011;24934;52.752;6.964;2023-05-10T06:21:27;37.05;;;30.65;;
39218;SDS011;24934;52.752;6.964;2023-05-10T06:23:53;38.50;;;30.17;;
39218;SDS011;24934;52.752;6.964;2023-05-10T06:26:21;41.63;;;31.58;;
39218;SDS011;24934;52.752;6.964;2023-05-10T06:28:51;39.60;;;31.52;;
39218;SDS011;24934;52.752;6.964;2023-05-10T06:31:17;39.40;;;31.15;;
39218;SDS011;24934;52.752;6.964;2023-05-10T06:33:42;47.40;;;32.15;;
39218;SDS011;24934;52.752;6.964;2023-05-10T06:36:08;41.45;;;32.58;;
39218;SDS011;24934;52.752;6.964;2023-05-10T06:38:34;43.75;;;31.58;;
39218;SDS011;24934;52.752;6.964;2023-05-10T06:40:59;43.85;;;31.70;;
39218;SDS011;24934;52.752;6.964;2023-05-10T06:43:25;49.13;;;33.30;;
39218;SDS011;24934;52.752;6.964;2023-05-10T06:45:53;40.05;;;31.38;;
39218;SDS011;24934;52.752;6.964;2023-05-10T06:48:19;40.97;;;31.95;;
39218;SDS011;24934;52.752;6.964;2023-05-10T06:50:44;35.42;;;30.33;;
39218;SDS011;24934;52.752;6.964;2023-05-10T06:53:10;36.38;;;29.92;;
39218;SDS011;24934;52.752;6.964;2023-05-10T06:55:37;41.03;;;30.60;;
39218;SDS011;24934;52.752;6.964;2023-05-10T06:58:02;37.72;;;30.10;;
39218;SDS011;24934;52.752;6.964;2023-05-10T07:00:31;35.28;;;30.48;;
39218;SDS011;24934;52.752;6.964;2023-05-10T07:02:56;32.95;;;29.20;;
39218;SDS011;24934;52.752;6.964;2023-05-10T07:05:23;35.17;;;29.40;;
39218;SDS011;24934;52.752;6.964;2023-05-10T07:07:49;37.17;;;29.60;;
39218;SDS011;24934;52.752;6.964;2023-05-10T07:10:14;37.00;;;28.70;;
39218;SDS011;24934;52.752;6.964;2023-05-10T07:12:40;33.53;;;29.90;;
39218;SDS011;24934;52.752;6.964;2023-05-10T07:15:06;32.25;;;28.52;;
39218;SDS011;24934;52.752;6.964;2023-05-10T07:17:32;30.00;;;26.85;;
39218;SDS011;24934;52.752;6.964;2023-05-10T07:19:58;30.38;;;27.17;;
39218;SDS011;24934;52.752;6.964;2023-05-10T07:22:25;29.90;;;26.85;;
39218;SDS011;24934;52.752;6.964;2023-05-10T07:24:50;29.92;;;26.75;;
39218;SDS011;24934;52.752;6.964;2023-05-10T07:27:19;30.23;;;26.85;;
39218;SDS011;24934;52.752;6.964;2023-05-10T07:29:44;28.40;;;25.50;;
39218;SDS011;24934;52.752;6.964;2023-05-10T07:32:10;28.80;;;25.58;;
39218;SDS011;24934;52.752;6.964;2023-05-10T07:34:35;29.10;;;26.15;;
39218;SDS011;24934;52.752;6.964;2023-05-10T07:37:01;29.52;;;25.55;;
39218;SDS011;24934;52.752;6.964;2023-05-10T07:39:27;29.67;;;26.25;;
39218;SDS011;24934;52.752;6.964;2023-05-10T07:41:53;31.98;;;25.42;;
39218;SDS011;24934;52.752;6.964;2023-05-10T07:44:22;32.03;;;25.80;;
39218;SDS011;24934;52.752;6.964;2023-05-10T07:46:48;29.00;;;26.08;;
39218;SDS011;24934;52.752;6.964;2023-05-10T07:49:14;29.13;;;26.00;;
39218;SDS011;24934;52.752;6.964;2023-05-10T07:51:39;28.63;;;25.73;;
39218;SDS011;24934;52.752;6.964;2023-05-10T07:54:05;27.33;;;24.58;;
39218;SDS011;24934;52.752;6.964;2023-05-10T07:56:31;28.45;;;25.45;;
39218;SDS011;24934;52.752;6.964;2023-05-10T07:59:00;28.88;;;25.90;;
39218;SDS011;24934;52.752;6.964;2023-05-10T08:01:32;28.52;;;25.17;;
39218;SDS011;24934;52.752;6.964;2023-05-10T08:03:59;27.05;;;24.35;;
39218;SDS011;24934;52.752;6.964;2023-05-10T08:06:25;27.13;;;24.08;;
39218;SDS011;24934;52.752;6.964;2023-05-10T08:08:53;25.95;;;22.88;;
39218;SDS011;24934;52.752;6.964;2023-05-10T08:11:22;26.05;;;23.55;;
39218;SDS011;24934;52.752;6.964;2023-05-10T08:13:48;25.88;;;23.33;;
39218;SDS011;24934;52.752;6.964;2023-05-10T08:16:15;25.50;;;23.00;;
39218;SDS011;24934;52.752;6.964;2023-05-10T08:18:43;25.52;;;23.15;;
39218;SDS011;24934;52.752;6.964;2023-05-10T08:21:10;25.35;;;22.83;;
39218;SDS011;24934;52.752;6.964;2023-05-10T08:23:38;26.70;;;23.90;;
39218;SDS011;24934;52.752;6.964;2023-05-10T08:26:04;25.70;;;23.40;;
39218;SDS011;24934;52.752;6.964;2023-05-10T08:28:30;26.25;;;23.73;;
39218;SDS011;24934;52.752;6.964;2023-05-10T08:30:56;25.75;;;23.40;;
39218;SDS011;24934;52.752;6.964;2023-05-10T08:33:21;25.85;;;23.50;;
39218;SDS011;24934;52.752;6.964;2023-05-10T08:35:47;25.65;;;23.35;;
39218;SDS011;24934;52.752;6.964;2023-05-10T08:38:13;25.33;;;23.02;;
39218;SDS011;24934;52.752;6.964;2023-05-10T08:40:43;24.17;;;21.90;;
39218;SDS011;24934;52.752;6.964;2023-05-10T08:43:10;24.77;;;22.35;;
39218;SDS011;24934;52.752;6.964;2023-05-10T08:45:46;25.60;;;23.25;;
39218;SDS011;24934;52.752;6.964;2023-05-10T08:48:14;24.75;;;22.42;;
39218;SDS011;24934;52.752;6.964;2023-05-10T08:50:41;24.83;;;22.45;;
39218;SDS011;24934;52.752;6.964;2023-05-10T08:53:11;24.92;;;22.27;;
39218;SDS011;24934;52.752;6.964;2023-05-10T08:55:39;24.58;;;22.33;;
39218;SDS011;24934;52.752;6.964;2023-05-10T08:58:07;24.45;;;22.20;;
39218;SDS011;24934;52.752;6.964;2023-05-10T09:00:34;23.92;;;21.63;;
39218;SDS011;24934;52.752;6.964;2023-05-10T09:03:00;23.17;;;21.17;;
39218;SDS011;24934;52.752;6.964;2023-05-10T09:05:27;22.38;;;20.55;;
39218;SDS011;24934;52.752;6.964;2023-05-10T09:07:53;23.52;;;21.20;;
39218;SDS011;24934;52.752;6.964;2023-05-10T09:10:19;21.77;;;19.67;;
39218;SDS011;24934;52.752;6.964;2023-05-10T09:12:45;21.77;;;19.73;;
39218;SDS011;24934;52.752;6.964;2023-05-10T09:15:11;22.20;;;20.20;;
39218;SDS011;24934;52.752;6.964;2023-05-10T09:17:44;21.90;;;20.00;;
39218;SDS011;24934;52.752;6.964;2023-05-10T09:20:10;22.67;;;20.70;;
39218;SDS011;24934;52.752;6.964;2023-05-10T09:22:36;22.00;;;20.10;;
39218;SDS011;24934;52.752;6.964;2023-05-10T09:27:38;22.10;;;20.20;;
39218;SDS011;24934;52.752;6.964;2023-05-10T09:30:06;23.35;;;21.13;;
39218;SDS011;24934;52.752;6.964;2023-05-10T09:32:36;22.77;;;20.77;;
39218;SDS011;24934;52.752;6.964;2023-05-10T09:35:16;23.50;;;21.40;;
39218;SDS011;24934;52.752;6.964;2023-05-10T09:37:43;22.90;;;20.88;;
39218;SDS011;24934;52.752;6.964;2023-05-10T09:40:11;21.65;;;19.75;;
39218;SDS011;24934;52.752;6.964;2023-05-10T09:42:38;22.65;;;20.65;;
39218;SDS011;24934;52.752;6.964;2023-05-10T09:45:06;22.35;;;20.33;;
39218;SDS011;24934;52.752;6.964;2023-05-10T09:47:32;22.35;;;20.45;;
39218;SDS011;24934;52.752;6.964;2023-05-10T09:49:59;22.38;;;20.45;;
39218;SDS011;24934;52.752;6.964;2023-05-10T09:53:14;23.08;;;21.00;;
39218;SDS011;24934;52.752;6.964;2023-05-10T09:55:16;21.95;;;20.05;;
39218;SDS011;24934;52.752;6.964;2023-05-10T09:57:43;21.25;;;19.27;;
39218;SDS011;24934;52.752;6.964;2023-05-10T10:00:09;21.38;;;19.65;;
39218;SDS011;24934;52.752;6.964;2023-05-10T10:02:36;23.83;;;20.40;;
39218;SDS011;24934;52.752;6.964;2023-05-10T10:05:03;21.55;;;19.65;;
39218;SDS011;24934;52.752;6.964;2023-05-10T10:07:29;21.58;;;19.77;;
39218;SDS011;24934;52.752;6.964;2023-05-10T10:09:54;21.92;;;20.00;;
39218;SDS011;24934;52.752;6.964;2023-05-10T10:12:20;21.27;;;19.38;;
39218;SDS011;24934;52.752;6.964;2023-05-10T10:14:46;21.25;;;19.27;;
39218;SDS011;24934;52.752;6.964;2023-05-10T10:17:15;20.75;;;18.95;;
39218;SDS011;24934;52.752;6.964;2023-05-10T10:19:41;20.85;;;19.13;;
39218;SDS011;24934;52.752;6.964;2023-05-10T10:22:08;20.70;;;18.90;;
39218;SDS011;24934;52.752;6.964;2023-05-10T10:24:37;21.08;;;19.17;;
39218;SDS011;24934;52.752;6.964;2023-05-10T10:27:09;20.38;;;18.77;;
39218;SDS011;24934;52.752;6.964;2023-05-10T10:32:35;20.88;;;19.13;;
39218;SDS011;24934;52.752;6.964;2023-05-10T10:35:11;21.83;;;19.90;;
39218;SDS011;24934;52.752;6.964;2023-05-10T10:37:43;21.42;;;19.60;;
39218;SDS011;24934;52.752;6.964;2023-05-10T10:40:23;21.67;;;19.83;;
39218;SDS011;24934;52.752;6.964;2023-05-10T10:42:49;22.00;;;19.95;;
39218;SDS011;24934;52.752;6.964;2023-05-10T10:45:15;20.15;;;18.55;;
39218;SDS011;24934;52.752;6.964;2023-05-10T10:47:41;20.55;;;18.75;;
39218;SDS011;24934;52.752;6.964;2023-05-10T10:50:11;19.85;;;18.08;;
39218;SDS011;24934;52.752;6.964;2023-05-10T10:52:44;20.58;;;18.70;;
39218;SDS011;24934;52.752;6.964;2023-05-10T10:55:14;20.30;;;18.42;;
39218;SDS011;24934;52.752;6.964;2023-05-10T10:57:44;21.17;;;19.20;;
39218;SDS011;24934;52.752;6.964;2023-05-10T11:00:32;20.05;;;18.45;;
39218;SDS011;24934;52.752;6.964;2023-05-10T11:05:36;20.27;;;18.58;;
39218;SDS011;24934;52.752;6.964;2023-05-10T11:08:09;21.95;;;18.02;;
39218;SDS011;24934;52.752;6.964;2023-05-10T11:10:38;20.33;;;18.33;;
39218;SDS011;24934;52.752;6.964;2023-05-10T11:13:05;23.20;;;20.30;;
39218;SDS011;24934;52.752;6.964;2023-05-10T11:15:33;20.58;;;18.77;;
39218;SDS011;24934;52.752;6.964;2023-05-10T11:20:59;20.65;;;18.90;;
39218;SDS011;24934;52.752;6.964;2023-05-10T11:25:57;22.10;;;20.15;;
39218;SDS011;24934;52.752;6.964;2023-05-10T11:28:23;21.85;;;19.70;;
39218;SDS011;24934;52.752;6.964;2023-05-10T11:30:51;20.85;;;19.02;;
39218;SDS011;24934;52.752;6.964;2023-05-10T11:33:17;21.05;;;19.05;;
39218;SDS011;24934;52.752;6.964;2023-05-10T11:35:47;20.05;;;18.35;;
39218;SDS011;24934;52.752;6.964;2023-05-10T11:38:13;20.13;;;18.42;;
39218;SDS011;24934;52.752;6.964;2023-05-10T11:40:41;21.75;;;19.75;;
39218;SDS011;24934;52.752;6.964;2023-05-10T11:43:08;21.50;;;19.55;;
39218;SDS011;24934;52.752;6.964;2023-05-10T11:45:35;21.80;;;19.60;;
39218;SDS011;24934;52.752;6.964;2023-05-10T11:48:02;22.08;;;20.08;;
39218;SDS011;24934;52.752;6.964;2023-05-10T11:50:28;21.73;;;19.83;;
39218;SDS011;24934;52.752;6.964;2023-05-10T11:52:55;20.70;;;18.80;;
39218;SDS011;24934;52.752;6.964;2023-05-10T11:55:21;21.88;;;19.88;;
39218;SDS011;24934;52.752;6.964;2023-05-10T11:57:52;20.08;;;18.38;;
39218;SDS011;24934;52.752;6.964;2023-05-10T12:00:19;20.40;;;18.60;;
39218;SDS011;24934;52.752;6.964;2023-05-10T12:02:45;20.35;;;18.45;;
39218;SDS011;24934;52.752;6.964;2023-05-10T12:05:11;21.02;;;19.23;;
39218;SDS011;24934;52.752;6.964;2023-05-10T12:07:37;20.45;;;18.58;;
39218;SDS011;24934;52.752;6.964;2023-05-10T12:10:09;21.55;;;19.40;;
39218;SDS011;24934;52.752;6.964;2023-05-10T12:12:45;20.10;;;18.50;;
39218;SDS011;24934;52.752;6.964;2023-05-10T12:15:19;22.17;;;20.08;;
39218;SDS011;24934;52.752;6.964;2023-05-10T12:17:49;22.98;;;20.65;;
39218;SDS011;24934;52.752;6.964;2023-05-10T12:20:16;22.67;;;20.58;;
39218;SDS011;24934;52.752;6.964;2023-05-10T12:22:49;23.30;;;20.98;;
39218;SDS011;24934;52.752;6.964;2023-05-10T12:25:20;24.00;;;21.60;;
39218;SDS011;24934;52.752;6.964;2023-05-10T12:27:47;20.95;;;18.85;;
39218;SDS011;24934;52.752;6.964;2023-05-10T12:30:24;21.65;;;19.73;;
39218;SDS011;24934;52.752;6.964;2023-05-10T12:32:51;22.08;;;20.05;;
39218;SDS011;24934;52.752;6.964;2023-05-10T12:35:17;22.80;;;20.60;;
39218;SDS011;24934;52.752;6.964;2023-05-10T12:37:47;22.63;;;20.50;;
39218;SDS011;24934;52.752;6.964;2023-05-10T12:40:13;22.55;;;20.55;;
39218;SDS011;24934;52.752;6.964;2023-05-10T12:42:39;22.55;;;20.38;;
39218;SDS011;24934;52.752;6.964;2023-05-10T12:45:05;22.83;;;20.55;;
39218;SDS011;24934;52.752;6.964;2023-05-10T12:47:32;22.48;;;20.27;;
39218;SDS011;24934;52.752;6.964;2023-05-10T12:49:59;21.38;;;19.38;;
39218;SDS011;24934;52.752;6.964;2023-05-10T12:52:26;21.05;;;19.15;;
39218;SDS011;24934;52.752;6.964;2023-05-10T12:54:52;20.77;;;18.77;;
39218;SDS011;24934;52.752;6.964;2023-05-10T12:57:18;20.08;;;18.23;;
39218;SDS011;24934;52.752;6.964;2023-05-10T12:59:47;19.02;;;17.42;;
39218;SDS011;24934;52.752;6.964;2023-05-10T13:02:12;19.40;;;17.60;;
39218;SDS011;24934;52.752;6.964;2023-05-10T13:04:39;18.90;;;17.05;;
39218;SDS011;24934;52.752;6.964;2023-05-10T13:07:06;18.20;;;16.48;;
39218;SDS011;24934;52.752;6.964;2023-05-10T13:09:33;18.60;;;16.80;;
39218;SDS011;24934;52.752;6.964;2023-05-10T13:11:59;18.25;;;16.58;;
39218;SDS011;24934;52.752;6.964;2023-05-10T13:14:29;19.65;;;17.75;;
39218;SDS011;24934;52.752;6.964;2023-05-10T13:16:54;19.52;;;17.83;;
39218;SDS011;24934;52.752;6.964;2023-05-10T13:19:20;19.42;;;17.63;;
39218;SDS011;24934;52.752;6.964;2023-05-10T13:21:47;18.33;;;16.52;;
39218;SDS011;24934;52.752;6.964;2023-05-10T13:24:13;18.17;;;16.48;;
39218;SDS011;24934;52.752;6.964;2023-05-10T13:26:39;16.23;;;14.82;;
39218;SDS011;24934;52.752;6.964;2023-05-10T13:29:05;14.68;;;13.50;;
39218;SDS011;24934;52.752;6.964;2023-05-10T13:31:33;14.68;;;13.48;;
39218;SDS011;24934;52.752;6.964;2023-05-10T13:33:59;14.93;;;13.65;;
39218;SDS011;24934;52.752;6.964;2023-05-10T13:36:25;15.95;;;14.55;;
39218;SDS011;24934;52.752;6.964;2023-05-10T13:38:51;15.10;;;13.75;;
39218;SDS011;24934;52.752;6.964;2023-05-10T13:41:16;14.38;;;13.05;;
39218;SDS011;24934;52.752;6.964;2023-05-10T13:43:42;14.90;;;13.52;;
39218;SDS011;24934;52.752;6.964;2023-05-10T13:46:08;15.10;;;13.82;;
39218;SDS011;24934;52.752;6.964;2023-05-10T13:48:33;17.08;;;15.43;;
39218;SDS011;24934;52.752;6.964;2023-05-10T13:50:59;16.92;;;15.32;;
39218;SDS011;24934;52.752;6.964;2023-05-10T13:53:31;17.85;;;15.65;;
39218;SDS011;24934;52.752;6.964;2023-05-10T13:55:56;18.70;;;16.88;;
39218;SDS011;24934;52.752;6.964;2023-05-10T13:58:22;17.90;;;16.25;;
39218;SDS011;24934;52.752;6.964;2023-05-10T14:00:48;16.90;;;15.30;;
39218;SDS011;24934;52.752;6.964;2023-05-10T14:03:14;16.13;;;14.73;;
39218;SDS011;24934;52.752;6.964;2023-05-10T14:05:39;17.73;;;16.17;;
39218;SDS011;24934;52.752;6.964;2023-05-10T14:08:05;17.02;;;15.43;;
39218;SDS011;24934;52.752;6.964;2023-05-10T14:10:31;16.42;;;15.13;;
39218;SDS011;24934;52.752;6.964;2023-05-10T14:12:56;16.02;;;14.63;;
39218;SDS011;24934;52.752;6.964;2023-05-10T14:15:24;17.08;;;15.50;;
39218;SDS011;24934;52.752;6.964;2023-05-10T14:17:50;17.33;;;15.68;;
39218;SDS011;24934;52.752;6.964;2023-05-10T14:20:16;17.65;;;16.05;;
39218;SDS011;24934;52.752;6.964;2023-05-10T14:22:42;17.58;;;15.98;;
39218;SDS011;24934;52.752;6.964;2023-05-10T14:25:10;17.52;;;15.82;;
39218;SDS011;24934;52.752;6.964;2023-05-10T14:27:39;17.65;;;16.05;;
39218;SDS011;24934;52.752;6.964;2023-05-10T14:30:05;18.27;;;16.48;;
39218;SDS011;24934;52.752;6.964;2023-05-10T14:32:31;17.98;;;16.05;;
39218;SDS011;24934;52.752;6.964;2023-05-10T14:34:57;17.42;;;15.93;;
39218;SDS011;24934;52.752;6.964;2023-05-10T14:37:23;18.17;;;16.58;;
39218;SDS011;24934;52.752;6.964;2023-05-10T14:39:48;18.85;;;17.05;;
39218;SDS011;24934;52.752;6.964;2023-05-10T14:42:14;20.05;;;17.80;;
39218;SDS011;24934;52.752;6.964;2023-05-10T14:44:42;18.33;;;16.50;;
39218;SDS011;24934;52.752;6.964;2023-05-10T14:47:08;17.85;;;16.13;;
39218;SDS011;24934;52.752;6.964;2023-05-10T14:49:34;16.55;;;14.93;;
39218;SDS011;24934;52.752;6.964;2023-05-10T14:51:59;17.33;;;15.77;;